Time;durP1;ratioP1;P1;durP2;ratioP2;P2;SDS_P1;SDS_P2;PMS_P1;PMS_P2;Temp;Humidity;BMP_temperature;BMP_pressure;BME280_temperature;BME280_humidity;BME280_pressure;Samples;Min_cycle;Max_cycle;Signal;HPM_P1;HPM_P2
2020/12/07 00:01:12;;;;;;;20.33;17.10;;;4.30;99.90;3.30;95209.00;;;;5109045;28;20793;-67
2020/12/07 00:03:39;;;;;;;17.73;14.80;;;4.30;99.90;3.30;95204.00;;;;5109557;28;20203;-68
2020/12/07 00:06:06;;;;;;;18.60;16.03;;;4.40;99.90;3.70;95205.00;;;;5109939;28;20213;-68
2020/12/07 00:08:34;;;;;;;19.63;16.20;;;4.40;99.90;3.80;95194.00;;;;5109285;28;20255;-67
2020/12/07 00:11:02;;;;;;;18.37;15.37;;;4.60;99.90;3.60;95205.00;;;;5109105;28;20206;-67
2020/12/07 00:13:29;;;;;;;19.00;14.40;;;4.60;99.90;3.60;95198.00;;;;5109267;28;20206;-67
2020/12/07 00:15:57;;;;;;;17.13;14.40;;;4.60;99.90;3.50;95198.00;;;;5109486;28;20214;-67
2020/12/07 00:18:24;;;;;;;19.27;14.70;;;4.60;99.90;3.70;95196.00;;;;5108741;28;20629;-68
2020/12/07 00:20:52;;;;;;;19.73;15.73;;;4.60;99.90;4.00;95196.00;;;;5109117;28;20226;-67
2020/12/07 00:23:19;;;;;;;19.50;15.13;;;4.70;99.90;4.10;95204.00;;;;5109613;28;20207;-68
2020/12/07 00:25:47;;;;;;;20.73;15.10;;;4.80;99.90;4.20;95216.00;;;;5109135;28;20578;-67
2020/12/07 00:28:15;;;;;;;19.03;15.33;;;5.00;99.90;4.20;95221.00;;;;5109273;28;20666;-67
2020/12/07 00:30:43;;;;;;;18.07;14.53;;;5.10;99.90;4.10;95230.00;;;;5108674;28;20211;-68
2020/12/07 00:33:10;;;;;;;16.63;13.20;;;5.10;99.90;4.20;95244.00;;;;5108883;28;20202;-68
2020/12/07 00:35:37;;;;;;;19.80;14.60;;;5.10;99.90;4.30;95239.00;;;;5109065;28;20275;-68
2020/12/07 00:38:05;;;;;;;16.77;13.77;;;5.20;99.90;4.20;95234.00;;;;5108998;28;20198;-68
2020/12/07 00:40:32;;;;;;;17.73;13.47;;;5.10;99.90;4.40;95241.00;;;;5108669;28;20230;-67
2020/12/07 00:43:00;;;;;;;17.80;13.87;;;5.20;99.90;4.50;95239.00;;;;5109257;28;20624;-67
2020/12/07 00:45:28;;;;;;;15.73;12.13;;;5.30;99.90;4.40;95238.00;;;;5109156;28;20230;-68
2020/12/07 00:47:55;;;;;;;13.87;11.47;;;5.40;99.90;4.40;95236.00;;;;5109447;28;20206;-68
2020/12/07 00:50:23;;;;;;;12.97;11.00;;;5.40;99.90;4.40;95247.00;;;;5108903;28;20202;-67
2020/12/07 00:52:50;;;;;;;16.00;11.83;;;5.40;99.90;4.40;95244.00;;;;5108982;28;20218;-68
2020/12/07 00:55:18;;;;;;;13.70;11.17;;;5.40;99.90;4.40;95237.00;;;;5109464;28;20241;-66
2020/12/07 00:57:45;;;;;;;13.90;10.47;;;5.40;99.90;4.40;95237.00;;;;5108367;28;20670;-69
2020/12/07 01:00:13;;;;;;;13.17;11.57;;;5.40;99.90;4.40;95232.00;;;;5108440;28;20218;-67
2020/12/07 01:02:41;;;;;;;11.83;10.47;;;5.40;99.90;4.40;95231.00;;;;5108612;28;20213;-67
2020/12/07 01:05:08;;;;;;;14.87;12.37;;;5.40;99.90;4.40;95239.00;;;;5109002;28;20219;-69
2020/12/07 01:07:36;;;;;;;13.57;11.30;;;5.40;99.90;4.40;95249.00;;;;5101507;28;20505;-67
2020/12/07 01:10:05;;;;;;;12.90;11.27;;;5.30;99.90;4.40;95227.00;;;;5102264;28;20210;-67
2020/12/07 01:12:32;;;;;;;13.43;11.07;;;5.40;99.90;4.40;95239.00;;;;5096363;28;20214;-68
2020/12/07 01:14:59;;;;;;;11.43;10.23;;;5.40;99.90;4.40;95242.00;;;;5106137;28;20272;-67
2020/12/07 01:17:27;;;;;;;12.73;10.97;;;5.40;99.90;4.40;95241.00;;;;5108421;28;20218;-67
2020/12/07 01:19:56;;;;;;;13.03;10.97;;;5.40;99.90;4.50;95254.00;;;;5108092;28;20307;-68
2020/12/07 01:22:24;;;;;;;15.47;11.87;;;5.40;99.90;4.40;95255.00;;;;5108532;28;20278;-68
2020/12/07 01:24:51;;;;;;;14.70;11.43;;;5.40;99.90;4.40;95258.00;;;;5108372;28;20225;-68
2020/12/07 01:27:18;;;;;;;11.33;10.10;;;5.40;99.90;4.40;95244.00;;;;5108633;28;20497;-68
2020/12/07 01:29:46;;;;;;;11.73;9.53;;;5.40;99.90;4.30;95243.00;;;;5107811;28;20202;-67
2020/12/07 01:32:13;;;;;;;11.77;9.03;;;5.40;99.90;4.40;95232.00;;;;5108074;28;20610;-68
2020/12/07 01:34:41;;;;;;;8.60;7.73;;;5.40;99.90;4.40;95232.00;;;;5108541;28;20435;-67
2020/12/07 01:37:09;;;;;;;11.00;8.77;;;5.40;99.90;4.40;95223.00;;;;5108730;28;20202;-68
2020/12/07 01:39:37;;;;;;;10.73;8.87;;;5.40;99.90;4.40;95228.00;;;;5108258;28;20714;-68
2020/12/07 01:42:04;;;;;;;12.73;8.83;;;5.40;99.90;4.40;95235.00;;;;5108281;28;20218;-67
2020/12/07 01:44:32;;;;;;;9.97;8.97;;;5.60;99.90;4.40;95235.00;;;;5108756;28;20256;-67
2020/12/07 01:47:11;;;;;;;9.63;8.50;;;5.40;99.90;4.40;95238.00;;;;5107632;28;20689;-67
2020/12/07 01:49:39;;;;;;;11.03;9.20;;;5.40;99.90;4.30;95241.00;;;;5108537;28;20251;-67
2020/12/07 01:52:06;;;;;;;11.90;9.47;;;5.40;99.90;4.40;95244.00;;;;5108845;28;20350;-70
2020/12/07 01:54:34;;;;;;;14.43;10.30;;;5.30;99.90;4.30;95237.00;;;;5112523;28;20759;-67
2020/12/07 01:57:02;;;;;;;10.70;9.60;;;5.30;99.90;4.30;95247.00;;;;5112017;28;20623;-67
2020/12/07 01:59:29;;;;;;;12.47;10.30;;;5.30;99.90;4.30;95229.00;;;;5111566;28;20206;-67
2020/12/07 02:01:57;;;;;;;9.43;8.20;;;5.30;99.90;4.20;95241.00;;;;5112120;28;20317;-67
2020/12/07 02:04:24;;;;;;;8.03;7.23;;;5.30;99.90;4.20;95241.00;;;;5112298;28;20512;-67
2020/12/07 02:06:51;;;;;;;9.77;7.90;;;5.30;99.90;4.20;95231.00;;;;5112252;28;20214;-69
2020/12/07 02:09:26;;;;;;;14.17;10.97;;;5.20;99.90;4.30;95236.00;;;;5104719;28;20642;-67
2020/12/07 02:11:55;;;;;;;11.70;9.67;;;5.20;99.90;4.40;95254.00;;;;5091534;28;20210;-67
2020/12/07 02:14:22;;;;;;;11.90;9.87;;;5.20;99.90;4.40;95243.00;;;;5091547;28;20227;-67
2020/12/07 02:16:50;;;;;;;16.70;11.37;;;5.30;99.90;4.50;95238.00;;;;5093022;28;20720;-67
2020/12/07 02:19:17;;;;;;;15.40;10.40;;;5.40;99.90;4.40;95226.00;;;;5111448;28;20202;-67
2020/12/07 02:21:46;;;;;;;13.63;10.93;;;5.40;99.90;4.50;95242.00;;;;5112285;28;20277;-67
2020/12/07 02:24:13;;;;;;;13.17;10.57;;;5.40;99.90;4.40;95240.00;;;;5111200;28;20226;-67
2020/12/07 02:26:40;;;;;;;12.07;9.93;;;5.40;99.90;4.40;95242.00;;;;5111780;28;20209;-67
2020/12/07 02:29:08;;;;;;;15.23;11.33;;;5.40;99.90;4.60;95249.00;;;;5111733;28;20209;-67
2020/12/07 02:31:37;;;;;;;13.13;9.93;;;5.40;99.90;4.50;95254.00;;;;5111840;28;20211;-68
2020/12/07 02:34:05;;;;;;;12.83;10.53;;;5.40;99.90;4.60;95250.00;;;;5111602;28;20226;-68
2020/12/07 02:36:32;;;;;;;14.87;11.43;;;5.50;99.90;4.50;95242.00;;;;5111727;28;20199;-69
2020/12/07 02:39:10;;;;;;;14.07;10.97;;;5.50;99.90;4.60;95251.00;;;;5111762;28;20461;-67
2020/12/07 02:41:37;;;;;;;14.40;11.37;;;5.50;99.90;4.70;95247.00;;;;5111470;28;20230;-67
2020/12/07 02:44:04;;;;;;;12.23;9.53;;;5.50;99.90;4.60;95259.00;;;;5111844;28;20230;-69
2020/12/07 02:46:32;;;;;;;10.43;8.57;;;5.50;99.90;4.50;95250.00;;;;5112053;28;20656;-66
2020/12/07 02:48:59;;;;;;;13.57;11.67;;;5.50;99.90;4.50;95255.00;;;;5111427;28;20293;-70
2020/12/07 02:51:27;;;;;;;10.77;9.37;;;5.50;99.90;4.50;95269.00;;;;5110705;28;20210;-68
2020/12/07 02:53:54;;;;;;;10.73;9.63;;;5.50;99.90;4.40;95269.00;;;;5111586;28;20234;-67
2020/12/07 02:56:23;;;;;;;12.70;10.13;;;5.50;99.90;4.40;95276.00;;;;5111738;28;20727;-67
2020/12/07 02:58:51;;;;;;;9.13;8.23;;;5.40;99.90;4.40;95271.00;;;;5111211;28;20206;-67
2020/12/07 03:01:18;;;;;;;10.90;9.50;;;5.40;99.90;4.30;95277.00;;;;5111116;28;20242;-67
2020/12/07 03:03:46;;;;;;;15.03;10.83;;;5.30;99.90;4.40;95271.00;;;;5110854;28;20236;-67
2020/12/07 03:06:13;;;;;;;12.43;9.83;;;5.30;99.90;4.30;95270.00;;;;5111613;28;20712;-67
2020/12/07 03:08:41;;;;;;;13.37;10.20;;;5.30;99.90;4.30;95268.00;;;;5110916;28;20232;-68
2020/12/07 03:11:08;;;;;;;13.73;10.90;;;5.30;99.90;4.30;95277.00;;;;5111002;28;20211;-67
2020/12/07 03:13:36;;;;;;;14.50;10.17;;;5.30;99.90;4.30;95269.00;;;;5110841;28;20207;-67
2020/12/07 03:16:04;;;;;;;12.60;10.43;;;5.30;99.90;4.30;95257.00;;;;5110996;28;20444;-67
2020/12/07 03:18:31;;;;;;;14.60;11.57;;;5.30;99.90;4.30;95265.00;;;;5110096;28;20213;-67
2020/12/07 03:20:58;;;;;;;11.97;8.93;;;5.30;99.90;4.20;95273.00;;;;5110777;28;20702;-67
2020/12/07 03:23:26;;;;;;;13.67;11.23;;;5.30;99.90;4.20;95271.00;;;;5110175;28;20233;-67
2020/12/07 03:25:53;;;;;;;14.00;10.73;;;5.20;99.90;4.20;95269.00;;;;5110489;28;20582;-67
2020/12/07 03:28:21;;;;;;;11.90;9.83;;;5.20;99.90;4.10;95264.00;;;;5110679;28;20214;-68
2020/12/07 03:30:49;;;;;;;16.70;12.37;;;5.20;99.90;4.20;95278.00;;;;5110107;28;20217;-67
2020/12/07 03:33:16;;;;;;;16.20;11.63;;;5.20;99.90;4.20;95261.00;;;;5110534;28;20211;-67
2020/12/07 03:35:44;;;;;;;12.37;10.27;;;5.20;99.90;4.10;95272.00;;;;5110736;28;20272;-67
2020/12/07 03:38:11;;;;;;;18.27;12.50;;;5.20;99.90;4.10;95279.00;;;;5110317;28;20618;-69
2020/12/07 03:40:39;;;;;;;14.27;11.50;;;5.10;99.90;4.20;95305.00;;;;5108007;28;20294;-67
2020/12/07 03:43:06;;;;;;;14.97;11.63;;;5.10;99.90;4.10;95299.00;;;;5107205;28;20213;-68
2020/12/07 03:45:36;;;;;;;15.13;10.93;;;5.10;99.90;4.10;95292.00;;;;5106250;28;20226;-67
2020/12/07 03:48:04;;;;;;;14.00;10.60;;;5.10;99.90;4.10;95293.00;;;;5106292;28;20219;-68
2020/12/07 03:50:32;;;;;;;11.43;10.33;;;5.10;99.90;4.10;95300.00;;;;5107666;28;20256;-67
2020/12/07 03:52:59;;;;;;;14.17;10.33;;;5.10;99.90;4.10;95302.00;;;;5107468;28;20214;-69
2020/12/07 03:55:27;;;;;;;12.70;9.73;;;5.10;99.90;4.10;95311.00;;;;5107709;28;21059;-68
2020/12/07 03:57:54;;;;;;;11.00;8.07;;;5.10;99.90;4.00;95310.00;;;;5109447;28;20206;-69
2020/12/07 04:00:22;;;;;;;10.60;9.23;;;5.10;99.90;4.00;95307.00;;;;5109756;28;20575;-68
2020/12/07 04:02:49;;;;;;;9.87;8.17;;;5.10;99.90;4.00;95304.00;;;;5110186;28;20207;-69
2020/12/07 04:05:22;;;;;;;8.13;6.63;;;5.00;99.90;4.00;95316.00;;;;5110462;28;20255;-69
2020/12/07 04:07:50;;;;;;;8.63;7.57;;;5.00;99.90;4.00;95312.00;;;;5110332;28;20206;-68
2020/12/07 04:10:17;;;;;;;11.27;8.87;;;5.00;99.90;4.00;95312.00;;;;5110510;28;20207;-69
2020/12/07 04:12:45;;;;;;;9.77;8.30;;;5.00;99.90;4.00;95321.00;;;;5109754;28;20213;-69
2020/12/07 04:15:12;;;;;;;8.80;7.43;;;5.00;99.90;4.00;95328.00;;;;5109748;28;20706;-69
2020/12/07 04:17:40;;;;;;;13.43;10.70;;;5.00;99.90;4.00;95326.00;;;;5110148;28;20199;-70
2020/12/07 04:20:07;;;;;;;11.80;9.87;;;5.00;99.90;4.00;95327.00;;;;5109965;28;20213;-67
2020/12/07 04:22:35;;;;;;;11.77;9.43;;;5.00;99.90;4.10;95322.00;;;;5110035;28;20233;-67
2020/12/07 04:25:03;;;;;;;7.80;7.00;;;5.00;99.90;4.00;95328.00;;;;5109494;28;20226;-67
2020/12/07 04:27:31;;;;;;;10.93;9.43;;;5.00;99.90;4.00;95321.00;;;;5109787;28;20237;-67
2020/12/07 04:29:58;;;;;;;9.67;7.90;;;5.00;99.90;4.00;95327.00;;;;5109575;28;20248;-67
2020/12/07 04:32:25;;;;;;;9.67;7.73;;;5.00;99.90;4.00;95329.00;;;;5110109;28;20202;-69
2020/12/07 04:34:53;;;;;;;9.27;7.70;;;5.00;99.90;4.00;95328.00;;;;5109693;28;20230;-69
2020/12/07 04:37:20;;;;;;;7.10;6.40;;;5.00;99.90;4.00;95330.00;;;;5109592;28;20214;-67
2020/12/07 04:39:49;;;;;;;8.93;8.03;;;5.00;99.90;4.00;95324.00;;;;5109478;28;20252;-67
2020/12/07 04:42:17;;;;;;;7.80;6.47;;;5.00;99.90;4.00;95330.00;;;;5109795;28;20241;-69
2020/12/07 04:44:45;;;;;;;6.50;5.70;;;5.00;99.90;3.90;95319.00;;;;5109826;28;20747;-67
2020/12/07 04:47:17;;;;;;;6.90;5.57;;;5.00;99.90;3.90;95314.00;;;;5109306;28;20202;-67
2020/12/07 04:49:46;;;;;;;5.60;5.03;;;5.00;99.90;3.90;95324.00;;;;5109479;28;20210;-67
2020/12/07 04:52:14;;;;;;;5.93;4.83;;;4.90;99.90;3.90;95315.00;;;;5109089;28;20259;-69
2020/12/07 04:54:42;;;;;;;9.60;5.43;;;4.90;99.90;3.90;95317.00;;;;5109615;28;20279;-69
2020/12/07 04:57:11;;;;;;;4.20;3.80;;;4.90;99.90;3.90;95331.00;;;;5109562;28;20206;-69
2020/12/07 04:59:40;;;;;;;4.93;4.50;;;4.90;99.90;4.00;95334.00;;;;5109442;28;20202;-69
2020/12/07 05:02:08;;;;;;;6.10;5.10;;;4.90;99.90;4.00;95332.00;;;;5108838;28;20713;-69
2020/12/07 05:04:36;;;;;;;5.30;4.80;;;4.90;99.90;3.90;95332.00;;;;5109983;28;20226;-69
2020/12/07 05:07:06;;;;;;;5.17;4.63;;;4.90;99.90;4.00;95325.00;;;;5108616;28;20300;-69
2020/12/07 05:09:34;;;;;;;5.87;5.37;;;5.00;99.90;4.00;95332.00;;;;5108631;28;20207;-69
2020/12/07 05:12:06;;;;;;;6.70;5.63;;;4.90;99.90;4.00;95332.00;;;;5108791;28;20225;-67
2020/12/07 05:14:34;;;;;;;9.30;7.30;;;4.00;99.90;3.90;95328.00;;;;5109166;28;20229;-69
2020/12/07 05:17:02;;;;;;;9.20;8.17;;;4.90;99.90;3.80;95336.00;;;;5109366;28;20206;-69
2020/12/07 05:19:30;;;;;;;9.63;8.60;;;4.90;99.90;3.80;95331.00;;;;5108694;28;20217;-69
2020/12/07 05:21:58;;;;;;;9.00;7.73;;;4.80;99.90;3.80;95337.00;;;;5109077;28;20560;-69
2020/12/07 05:24:25;;;;;;;8.97;7.10;;;4.80;99.90;3.80;95348.00;;;;5109106;28;20226;-69
2020/12/07 05:26:54;;;;;;;8.20;7.30;;;4.80;99.90;3.80;95348.00;;;;5111006;28;20234;-68
2020/12/07 05:29:32;;;;;;;8.37;7.37;;;4.80;99.90;3.80;95344.00;;;;5113244;28;20521;-68
2020/12/07 05:32:01;;;;;;;7.43;6.67;;;4.80;99.90;3.80;95339.00;;;;5113100;28;20210;-69
2020/12/07 05:34:28;;;;;;;5.97;5.43;;;4.90;99.90;3.80;95343.00;;;;5113081;28;20223;-69
2020/12/07 05:36:57;;;;;;;8.23;6.40;;;4.80;99.90;3.80;95365.00;;;;5113339;28;20269;-69
2020/12/07 05:39:25;;;;;;;6.60;5.90;;;4.80;99.90;3.80;95352.00;;;;5112433;28;20199;-69
2020/12/07 05:41:55;;;;;;;5.70;5.10;;;4.80;99.90;3.80;95351.00;;;;5112489;28;20780;-69
2020/12/07 05:44:22;;;;;;;5.23;4.27;;;4.80;99.90;3.70;95354.00;;;;5112595;28;20736;-68
2020/12/07 05:46:55;;;;;;;4.73;4.07;;;4.80;99.90;3.70;95351.00;;;;5112751;28;20497;-68
2020/12/07 05:49:26;;;;;;;7.47;6.30;;;5.40;99.90;3.70;95359.00;;;;5112457;28;20210;-68
2020/12/07 05:52:03;;;;;;;7.30;6.23;;;4.80;99.90;3.70;95367.00;;;;5112136;28;20210;-68
2020/12/07 05:54:32;;;;;;;9.60;7.00;;;4.80;99.90;3.70;95376.00;;;;5113228;28;20312;-68
2020/12/07 05:57:10;;;;;;;7.37;6.60;;;4.90;99.90;3.70;95378.00;;;;5112530;28;20251;-68
2020/12/07 05:59:42;;;;;;;7.07;5.47;;;4.70;99.90;3.70;95385.00;;;;5112477;28;20210;-68
2020/12/07 06:02:16;;;;;;;5.67;4.33;;;4.70;99.90;3.70;95394.00;;;;5112349;28;20716;-68
2020/12/07 06:04:44;;;;;;;8.50;6.23;;;4.80;99.90;3.70;95400.00;;;;5112784;28;20221;-68
2020/12/07 06:07:13;;;;;;;6.57;5.87;;;4.80;99.90;3.70;95401.00;;;;5112109;28;20281;-68
2020/12/07 06:09:43;;;;;;;8.27;6.80;;;4.80;99.90;3.70;95387.00;;;;5112259;28;20210;-68
2020/12/07 06:12:18;;;;;;;7.20;6.43;;;4.80;99.90;3.70;95382.00;;;;5111831;28;20217;-68
2020/12/07 06:14:46;;;;;;;7.30;5.00;;;4.70;99.90;3.70;95385.00;;;;5112058;28;20234;-68
2020/12/07 06:17:23;;;;;;;13.00;6.93;;;4.70;99.90;3.70;95387.00;;;;5112276;28;20202;-68
2020/12/07 06:19:53;;;;;;;6.33;5.73;;;4.70;99.90;3.70;95388.00;;;;5111727;28;20210;-68
2020/12/07 06:22:23;;;;;;;6.30;5.50;;;4.70;99.90;3.70;95381.00;;;;5110415;28;20230;-68
2020/12/07 06:24:53;;;;;;;8.87;7.90;;;4.70;99.90;3.60;95386.00;;;;5111661;28;20230;-68
2020/12/07 06:27:21;;;;;;;7.50;6.80;;;4.70;99.90;3.60;95390.00;;;;5111384;28;20259;-69
2020/12/07 06:30:00;;;;;;;7.40;5.97;;;4.70;99.90;3.60;95380.00;;;;5111157;28;20568;-68
2020/12/07 06:32:46;;;;;;;9.20;7.73;;;4.60;99.90;3.60;95371.00;;;;5111347;28;20214;-68
2020/12/07 06:35:15;;;;;;;11.93;7.83;;;4.70;99.90;3.60;95390.00;;;;5111684;28;20255;-68
2020/12/07 06:37:48;;;;;;;9.57;8.40;;;4.60;99.90;3.50;95400.00;;;;5111020;28;20202;-69
2020/12/07 06:40:18;;;;;;;14.77;11.13;;;4.60;99.90;3.60;95401.00;;;;5110716;28;20202;-68
2020/12/07 06:42:47;;;;;;;12.97;11.47;;;4.60;99.90;3.60;95406.00;;;;5111065;28;20277;-68
2020/12/07 06:45:23;;;;;;;12.00;9.13;;;4.60;99.90;3.50;95403.00;;;;5111364;28;20218;-69
2020/12/07 06:47:52;;;;;;;11.17;8.53;;;4.60;99.90;3.60;95405.00;;;;5111423;28;20665;-68
2020/12/07 06:50:23;;;;;;;10.07;8.47;;;4.60;99.90;3.60;95417.00;;;;5110782;28;20198;-68
2020/12/07 06:52:50;;;;;;;7.90;7.10;;;4.60;99.90;3.60;95406.00;;;;5111087;28;20211;-68
2020/12/07 06:55:18;;;;;;;7.33;6.63;;;4.60;99.90;3.60;95418.00;;;;5110709;28;20325;-68
2020/12/07 06:57:47;;;;;;;10.13;8.17;;;4.60;99.90;3.60;95410.00;;;;5110755;28;20206;-68
2020/12/07 07:00:17;;;;;;;9.80;8.80;;;4.60;99.90;3.70;95410.00;;;;5110980;28;20202;-68
2020/12/07 07:02:47;;;;;;;8.37;7.37;;;4.60;99.90;3.70;95400.00;;;;5111154;28;20645;-69
2020/12/07 07:05:18;;;;;;;9.87;8.17;;;4.70;99.90;3.70;95406.00;;;;5111478;28;20234;-68
2020/12/07 07:07:46;;;;;;;9.70;8.10;;;4.70;99.90;3.70;95428.00;;;;5110795;28;20198;-69
2020/12/07 07:10:15;;;;;;;10.90;8.20;;;4.70;99.90;3.70;95435.00;;;;5103688;28;20215;-68
2020/12/07 07:12:44;;;;;;;9.53;6.67;;;4.70;99.90;3.70;95412.00;;;;5096189;28;20202;-68
2020/12/07 07:15:14;;;;;;;9.67;7.07;;;4.70;99.90;3.70;95420.00;;;;5092082;28;20225;-68
2020/12/07 07:17:43;;;;;;;7.27;6.47;;;4.70;99.90;3.70;95436.00;;;;5094147;28;20588;-68
2020/12/07 07:20:13;;;;;;;8.70;7.77;;;4.70;99.90;3.70;95459.00;;;;5093107;28;20207;-68
2020/12/07 07:22:42;;;;;;;7.03;5.90;;;4.70;99.90;3.70;95438.00;;;;5101251;28;20724;-68
2020/12/07 07:25:25;;;;;;;7.77;6.23;;;4.70;99.90;3.70;95441.00;;;;5106206;28;20652;-68
2020/12/07 07:28:07;;;;;;;5.90;5.30;;;4.70;99.90;3.70;95460.00;;;;5109247;28;20202;-68
2020/12/07 07:30:36;;;;;;;7.67;6.87;;;4.70;99.90;3.70;95452.00;;;;5110077;28;20202;-68
2020/12/07 07:33:04;;;;;;;7.63;6.83;;;4.70;99.90;3.60;95462.00;;;;5109885;28;20624;-68
2020/12/07 07:35:32;;;;;;;10.03;6.73;;;4.70;99.90;3.70;95468.00;;;;5110906;28;20654;-68
2020/12/07 07:38:00;;;;;;;7.90;7.10;;;4.70;99.90;3.60;95466.00;;;;5110902;28;20705;-68
2020/12/07 07:40:30;;;;;;;6.97;6.27;;;4.70;99.90;3.60;95484.00;;;;5110730;28;20213;-68
2020/12/07 07:43:01;;;;;;;9.20;6.43;;;4.70;99.90;3.60;95476.00;;;;5109940;28;20219;-68
2020/12/07 07:45:32;;;;;;;5.63;5.03;;;4.70;99.90;3.70;95473.00;;;;5110950;28;20227;-68
2020/12/07 07:48:05;;;;;;;7.00;6.37;;;4.70;99.90;3.70;95477.00;;;;5102992;28;20265;-69
2020/12/07 07:51:04;;;;;;;7.03;6.33;;;4.70;99.90;3.70;95485.00;;;;5107282;28;20283;-68
2020/12/07 08:16:22;;;;;;;7.10;6.13;;;4.80;99.90;4.00;95495.00;;;;5107871;28;20214;-68
2020/12/07 08:18:54;;;;;;;6.50;5.80;;;4.90;99.90;4.00;95490.00;;;;5107621;28;20210;-68
2020/12/07 08:21:26;;;;;;;8.07;7.10;;;4.90;99.90;4.00;95492.00;;;;5104178;28;20231;-68
2020/12/07 08:23:58;;;;;;;11.43;10.23;;;4.90;99.90;4.00;95499.00;;;;5106155;28;20234;-69
2020/12/07 08:26:26;;;;;;;8.33;7.17;;;5.00;99.90;4.00;95502.00;;;;5109755;28;20205;-68
2020/12/07 08:28:55;;;;;;;9.73;7.20;;;5.00;99.90;4.00;95512.00;;;;5109542;28;20210;-68
2020/12/07 08:31:23;;;;;;;8.43;7.27;;;5.00;99.90;4.00;95524.00;;;;5109397;28;20202;-68
2020/12/07 08:33:57;;;;;;;8.93;7.97;;;5.00;99.90;4.10;95524.00;;;;5107573;28;20218;-68
2020/12/07 08:36:26;;;;;;;7.60;6.87;;;5.00;99.90;4.10;95524.00;;;;5108845;28;20202;-68
2020/12/07 08:38:54;;;;;;;7.87;7.07;;;5.00;99.90;4.10;95522.00;;;;5106469;28;20203;-68
2020/12/07 08:41:23;;;;;;;8.97;7.93;;;5.10;99.90;4.10;95510.00;;;;5108754;28;20202;-68
2020/12/07 08:43:54;;;;;;;9.07;6.73;;;5.10;99.90;4.20;95517.00;;;;5108124;28;20233;-68
2020/12/07 08:46:24;;;;;;;7.77;6.23;;;5.10;99.90;4.20;95513.00;;;;5106358;28;20460;-68
2020/12/07 08:48:51;;;;;;;12.23;9.10;;;5.10;99.90;4.20;95522.00;;;;5108673;28;20202;-68
2020/12/07 08:51:21;;;;;;;9.43;7.77;;;5.20;99.90;4.20;95518.00;;;;5109009;28;20209;-68
2020/12/07 08:53:49;;;;;;;10.00;7.80;;;5.20;99.90;4.30;95531.00;;;;5108922;28;20242;-68
2020/12/07 08:56:17;;;;;;;8.03;7.10;;;5.20;99.90;4.30;95534.00;;;;5109198;28;20300;-68
2020/12/07 08:58:45;;;;;;;6.93;6.23;;;5.30;99.90;4.30;95545.00;;;;5109035;28;20206;-68
2020/12/07 09:01:14;;;;;;;8.17;7.33;;;5.30;99.90;4.30;95544.00;;;;5107601;28;20693;-69
2020/12/07 09:03:43;;;;;;;8.00;7.20;;;5.30;99.90;4.40;95538.00;;;;5100950;28;20219;-68
2020/12/07 09:06:12;;;;;;;9.13;7.53;;;5.30;99.90;4.40;95554.00;;;;5108973;28;20662;-69
2020/12/07 09:08:41;;;;;;;7.70;6.53;;;5.30;99.90;4.50;95559.00;;;;5106100;28;20210;-68
2020/12/07 09:11:11;;;;;;;9.23;7.23;;;5.40;99.90;4.50;95561.00;;;;5106254;28;20214;-69
2020/12/07 09:13:39;;;;;;;8.53;7.63;;;5.40;99.90;4.40;95574.00;;;;5108057;28;20260;-68
2020/12/07 09:16:07;;;;;;;12.40;8.73;;;5.40;99.90;4.50;95580.00;;;;5108395;28;20206;-69
2020/12/07 09:18:36;;;;;;;13.43;9.33;;;5.40;99.90;4.40;95568.00;;;;5097922;28;20202;-68
2020/12/07 09:21:05;;;;;;;14.40;9.53;;;5.40;99.90;4.40;95569.00;;;;5104952;28;20210;-68
2020/12/07 09:23:33;;;;;;;14.47;9.83;;;5.40;99.90;4.50;95574.00;;;;5105696;28;20233;-68
2020/12/07 09:26:01;;;;;;;10.77;8.73;;;5.40;99.90;4.50;95570.00;;;;5102111;28;20207;-68
2020/12/07 09:28:29;;;;;;;13.00;9.73;;;5.40;99.90;4.50;95562.00;;;;5104399;28;20206;-68
2020/12/07 09:30:56;;;;;;;11.13;9.07;;;5.50;99.90;4.60;95568.00;;;;5105637;28;20403;-68
2020/12/07 09:33:24;;;;;;;13.60;9.63;;;5.50;99.90;4.70;95576.00;;;;5107733;28;20554;-68
2020/12/07 09:35:52;;;;;;;12.10;8.80;;;5.50;99.90;4.70;95558.00;;;;5104810;28;20202;-68
2020/12/07 09:38:20;;;;;;;12.63;9.47;;;5.60;99.90;4.80;95557.00;;;;5109037;28;20207;-68
2020/12/07 09:40:48;;;;;;;10.83;7.97;;;5.70;99.90;4.90;95551.00;;;;5108291;28;20210;-68
2020/12/07 09:43:15;;;;;;;11.57;8.30;;;5.70;99.90;4.90;95556.00;;;;5105787;28;20226;-68
2020/12/07 09:45:43;;;;;;;16.43;10.67;;;5.80;99.90;4.90;95545.00;;;;5105201;28;20251;-68
2020/12/07 09:48:11;;;;;;;14.00;10.87;;;5.80;99.90;5.00;95537.00;;;;5108697;28;20210;-68
2020/12/07 09:50:39;;;;;;;9.97;7.37;;;5.90;99.90;5.10;95534.00;;;;5108432;28;20210;-68
2020/12/07 09:53:11;;;;;;;15.20;10.67;;;5.90;99.90;5.10;95540.00;;;;5101937;28;20207;-68
2020/12/07 09:55:39;;;;;;;13.60;10.03;;;6.00;99.90;5.10;95557.00;;;;5109006;28;20225;-68
2020/12/07 09:58:06;;;;;;;10.93;9.43;;;6.10;99.90;5.10;95540.00;;;;5105188;28;20215;-68
2020/12/07 10:00:34;;;;;;;10.77;8.60;;;6.00;99.90;5.20;95545.00;;;;5094833;28;20210;-68
2020/12/07 10:03:01;;;;;;;12.67;8.63;;;6.00;99.90;5.30;95545.00;;;;5100773;28;20237;-68
2020/12/07 10:05:29;;;;;;;9.70;8.70;;;6.10;99.90;5.30;95545.00;;;;5108474;28;20218;-68
2020/12/07 10:07:56;;;;;;;10.60;8.53;;;6.10;99.90;5.40;95557.00;;;;5107945;28;20198;-69
2020/12/07 10:10:24;;;;;;;13.33;10.10;;;6.20;99.90;5.50;95550.00;;;;5108107;28;20210;-68
2020/12/07 10:12:52;;;;;;;10.37;7.70;;;6.20;99.90;5.70;95565.00;;;;5108663;28;20206;-69
2020/12/07 10:15:19;;;;;;;9.83;8.57;;;6.30;99.90;5.80;95556.00;;;;5112176;28;20713;-68
2020/12/07 10:17:47;;;;;;;9.63;8.00;;;6.50;99.90;6.00;95561.00;;;;5112221;28;20238;-68
2020/12/07 10:20:14;;;;;;;11.60;8.90;;;6.70;99.90;6.30;95558.00;;;;5094283;28;20211;-68
2020/12/07 10:22:42;;;;;;;16.20;11.07;;;6.80;99.90;6.30;95562.00;;;;5092164;28;20231;-68
2020/12/07 10:25:09;;;;;;;13.17;9.87;;;7.00;99.90;6.30;95562.00;;;;5094370;28;20227;-68
2020/12/07 10:27:37;;;;;;;11.93;10.00;;;7.00;99.90;6.30;95571.00;;;;5112224;28;20210;-68
2020/12/07 10:30:05;;;;;;;11.67;8.70;;;7.10;99.90;6.30;95577.00;;;;5112053;28;20292;-68
2020/12/07 10:32:32;;;;;;;11.37;8.87;;;7.10;99.90;6.10;95576.00;;;;5112782;28;20222;-68
2020/12/07 10:35:00;;;;;;;10.23;8.37;;;7.10;99.90;6.10;95578.00;;;;5111948;28;20304;-68
2020/12/07 10:37:27;;;;;;;10.80;9.47;;;7.00;99.90;6.00;95573.00;;;;5112504;28;20213;-69
2020/12/07 10:39:54;;;;;;;16.83;12.70;;;6.90;99.90;5.90;95581.00;;;;5111618;28;20213;-68
2020/12/07 10:42:22;;;;;;;13.07;9.10;;;6.90;99.90;5.90;95572.00;;;;5110843;28;20225;-68
2020/12/07 10:44:50;;;;;;;11.53;9.33;;;6.80;99.90;6.00;95562.00;;;;5105745;28;20271;-68
2020/12/07 10:47:18;;;;;;;14.50;9.70;;;6.80;99.90;5.90;95564.00;;;;5104188;28;20665;-69
2020/12/07 10:49:45;;;;;;;11.90;9.30;;;6.80;99.90;5.90;95566.00;;;;5099212;28;20214;-68
2020/12/07 10:52:13;;;;;;;10.07;8.60;;;6.80;99.90;5.90;95553.00;;;;5103075;28;20218;-68
2020/12/07 10:54:40;;;;;;;12.30;9.57;;;6.80;99.90;6.00;95554.00;;;;5111000;28;20230;-68
2020/12/07 10:57:08;;;;;;;11.60;9.47;;;6.80;99.90;6.00;95557.00;;;;5107691;28;20202;-68
2020/12/07 10:59:35;;;;;;;14.63;9.47;;;6.80;99.90;6.00;95557.00;;;;5110689;28;20198;-69
2020/12/07 11:02:04;;;;;;;10.37;8.27;;;6.80;99.90;6.00;95559.00;;;;5107653;28;20950;-69
2020/12/07 11:04:31;;;;;;;11.13;9.13;;;6.80;99.90;6.10;95557.00;;;;5110062;28;20218;-68
2020/12/07 11:07:01;;;;;;;16.47;12.43;;;6.80;99.90;6.10;95556.00;;;;5106856;28;21887;-68
2020/12/07 11:09:29;;;;;;;21.57;15.20;;;6.90;99.90;6.20;95563.00;;;;5110685;28;20199;-69
2020/12/07 11:11:59;;;;;;;19.30;13.50;;;7.00;99.90;6.20;95547.00;;;;5090880;28;20207;-68
2020/12/07 11:14:27;;;;;;;16.90;10.77;;;7.00;99.90;6.30;95560.00;;;;5090914;28;20234;-69
2020/12/07 11:16:55;;;;;;;14.00;10.20;;;7.10;99.90;6.40;95562.00;;;;5096202;28;20203;-68
2020/12/07 11:19:23;;;;;;;12.00;10.07;;;7.10;99.90;6.50;95561.00;;;;5112132;27;20230;-68
2020/12/07 11:21:51;;;;;;;11.70;9.10;;;7.20;99.90;6.60;95567.00;;;;5110438;28;20198;-68
2020/12/07 11:24:18;;;;;;;14.13;10.33;;;7.30;99.90;6.70;95566.00;;;;5103710;28;20226;-69
2020/12/07 11:26:47;;;;;;;12.20;8.93;;;7.30;99.90;6.70;95563.00;;;;5110467;28;20206;-68
2020/12/07 11:29:15;;;;;;;9.53;8.07;;;7.40;99.90;6.70;95566.00;;;;5109819;28;20203;-68
2020/12/07 11:31:46;;;;;;;9.70;7.60;;;7.40;99.90;6.70;95563.00;;;;5110555;28;20556;-68